< Typhoon 198007 1980 Season Typhoon 198009 >
Typhoon 198008 (JOE)
General InformationTrack Information on Google MapsDetailed Wind Information || Disaster Info.ResourceGoogle EarthGE AnimationAtom FeedGeoJSON
Detalied Best Track (Time Zone = UTC)
Year Month Day Hour Lat. Long. Pressure (hPa) Wind (kt) Class Image Chart
1980 7 15 18 9.8 150.0 1008 0 2 -- Chart
1980 7 16 00 9.8 148.5 1008 0 2 -- Chart
1980 7 16 06 9.8 147.2 1006 0 2 -- Chart
1980 7 16 12 10.5 146.2 1006 0 2 -- Chart
1980 7 16 18 11.0 145.3 1006 0 2 -- Chart
1980 7 17 00 11.6 144.3 1006 0 2 -- Chart
1980 7 17 06 12.2 143.3 1004 0 2 -- Chart
1980 7 17 12 12.6 141.9 1002 0 2 -- Chart
1980 7 17 18 13.0 140.4 1002 0 2 -- Chart
1980 7 18 00 13.4 138.9 1000 0 2 -- Chart
1980 7 18 06 13.7 137.5 996 35 3 -- Chart
1980 7 18 12 14.0 136.0 990 40 3 -- Chart
1980 7 18 18 14.3 134.6 985 45 3 -- Chart
1980 7 19 00 14.6 133.2 980 50 4 -- Chart
1980 7 19 06 14.9 131.7 975 55 4 -- Chart
1980 7 19 12 15.2 130.0 970 70 5 -- Chart
1980 7 19 18 15.4 128.3 965 70 5 -- Chart
1980 7 20 00 15.7 126.7 960 70 5 -- Chart
1980 7 20 06 16.0 124.8 950 75 5 -- Chart
1980 7 20 12 16.5 123.5 940 85 5 -- Chart
1980 7 20 18 17.0 122.1 950 80 5 -- Chart
1980 7 21 00 17.4 120.7 970 65 5 -- Chart
1980 7 21 06 18.0 119.0 975 75 5 -- Chart
1980 7 21 12 18.4 117.3 980 70 5 -- Chart
1980 7 21 18 18.7 115.7 980 70 5 -- Chart
1980 7 22 00 19.0 114.0 975 70 5 -- Chart
1980 7 22 06 19.5 112.3 970 70 5 -- Chart
1980 7 22 12 20.0 110.3 970 70 5 -- Chart
1980 7 22 18 20.4 108.5 970 70 5 -- Chart
1980 7 23 00 20.8 107.0 975 55 4 -- Chart
1980 7 23 06 20.5 105.5 985 45 3 -- Chart
1980 7 23 12 20.5 104.0 996 0 2 -- Chart
1980 7 23 18 20.5 102.0 998 0 2 -- Chart
1980 7 24 00 21.0 101.0 1002 0 6 -- Chart
Japan Meteorological Agency Best Track Data | Correction Date : 1992-10-21
< Typhoon 198007 1980 Season Typhoon 198009 >

Help